THUNDERSTORM

Not for real navigation. The accuracy of this data is not assured See disclaimer for more information



ICAO NAME COUNTRY WIND Kt GUST Kt VIS m TEMP/DEW C BARO METAR
SBMK Montes Claros Brazil 12 0 3000 22/22 29.91 SBMK 172200Z 03012KT 3000 TSRA SCT020 FEW050CB BKN080 22/22 Q1013
KRRL Merrill, Merrill Municipal Air WI United States 0 0 3200 0/0 29.81 KRRL 172215Z AUTO 00000KT 2SM BR OVC007 00/00 A2981 RMK AO2 T00030000 TS
PAII Egegik, Egegik Airport AK United States 4 0 4800 -1/-2 29.55 PAII 172201Z AUTO 29004KT 3SM -SN BR OVC010 M01/M02 A2955 RMK AO2 CIG 007V012 P0000 FZRANO TS
PAQT NUIQSUT AIRPORT AK United States 8 0 6400 -17/-19 29.85 PAQT 172153Z AUTO 28008KT 4SM -SN BR OVC024 M17/M19 A2985 RMK AO2 SLP111 T11671189 TS PNO
SLMG Magdalena Bolivia 0 0 8000 32/23 29.68 SLMG 172200Z 00000KT 8000 TS VCSH FEW017 FEW023CB BKN200 32/23 Q1005

Show more